Time;durP1;ratioP1;P1;durP2;ratioP2;P2;SDS_P1;SDS_P2;PMS_P1;PMS_P2;Temp;Humidity;BMP_temperature;BMP_pressure;BME280_temperature;BME280_humidity;BME280_pressure;Samples;Min_cycle;Max_cycle;Signal;HPM_P1;HPM_P2
2023/05/26 00:01:06;;;;;;;9.63;4.37;;;14.60;99.90;;;;;;5068595;28;20214;-73
2023/05/26 00:03:34;;;;;;;7.90;4.03;;;14.50;99.90;;;;;;5068627;28;20314;-73
2023/05/26 00:06:01;;;;;;;10.20;4.00;;;14.50;99.90;;;;;;5068477;28;20601;-74
2023/05/26 00:08:28;;;;;;;7.67;4.60;;;14.50;99.90;;;;;;5068317;28;20294;-74
2023/05/26 00:10:55;;;;;;;10.00;3.77;;;14.40;99.90;;;;;;5068554;28;20214;-74
2023/05/26 00:13:22;;;;;;;11.17;4.33;;;14.40;99.90;;;;;;5067664;28;20233;-74
2023/05/26 00:15:49;;;;;;;7.97;4.37;;;14.30;99.90;;;;;;5067763;28;20295;-73
2023/05/26 00:18:17;;;;;;;11.03;5.20;;;14.30;99.90;;;;;;5068537;28;20262;-74
2023/05/26 00:20:44;;;;;;;9.17;4.43;;;14.30;99.90;;;;;;5068215;28;21020;-73
2023/05/26 00:23:11;;;;;;;8.37;4.73;;;14.20;99.90;;;;;;5068181;28;20774;-74
2023/05/26 00:25:38;;;;;;;12.87;5.00;;;14.20;99.90;;;;;;5067783;28;20326;-74
2023/05/26 00:28:05;;;;;;;6.80;3.63;;;14.20;99.90;;;;;;5067944;28;20290;-75
2023/05/26 00:30:31;;;;;;;10.77;4.63;;;14.20;99.90;;;;;;5068009;28;20242;-74
2023/05/26 00:32:58;;;;;;;8.30;4.13;;;14.20;99.90;;;;;;5067629;28;20634;-74
2023/05/26 00:35:27;;;;;;;10.50;4.70;;;14.10;99.90;;;;;;5068354;28;20215;-74
2023/05/26 00:37:53;;;;;;;6.47;3.80;;;14.00;99.90;;;;;;5068189;28;20565;-73
2023/05/26 00:40:20;;;;;;;10.30;5.03;;;14.00;99.90;;;;;;5067630;28;20301;-74
2023/05/26 00:42:47;;;;;;;8.10;4.23;;;14.00;99.90;;;;;;5067863;28;20330;-73
2023/05/26 00:45:14;;;;;;;7.40;4.00;;;13.90;99.90;;;;;;5067973;28;20616;-74
2023/05/26 00:47:41;;;;;;;13.33;4.67;;;13.80;99.90;;;;;;5068185;28;20268;-76
2023/05/26 00:50:12;;;;;;;9.57;4.27;;;13.80;99.90;;;;;;5067996;28;20505;-72
2023/05/26 00:52:41;;;;;;;9.83;4.60;;;13.80;99.90;;;;;;5067882;28;20199;-73
2023/05/26 00:55:09;;;;;;;9.50;4.37;;;13.80;99.90;;;;;;5067932;28;20203;-73
2023/05/26 00:57:37;;;;;;;7.60;4.17;;;13.80;99.90;;;;;;5067718;28;20575;-73
2023/05/26 01:00:07;;;;;;;8.43;4.13;;;13.70;99.90;;;;;;5067527;28;20295;-73
2023/05/26 01:02:35;;;;;;;8.20;4.07;;;13.70;99.90;;;;;;5067244;28;20228;-73
2023/05/26 01:05:01;;;;;;;7.87;4.30;;;13.70;99.90;;;;;;5067485;28;20203;-72
2023/05/26 01:07:28;;;;;;;9.87;4.27;;;13.60;99.90;;;;;;5067130;28;20314;-72
2023/05/26 01:09:57;;;;;;;10.33;4.57;;;13.60;99.90;;;;;;5066919;28;20326;-72
2023/05/26 01:12:29;;;;;;;9.50;4.53;;;13.50;99.90;;;;;;5067140;28;20236;-73
2023/05/26 01:15:01;;;;;;;10.93;3.97;;;13.50;99.90;;;;;;5067207;28;20204;-72
2023/05/26 01:17:33;;;;;;;10.03;4.50;;;13.50;99.90;;;;;;5067752;28;20203;-72
2023/05/26 01:20:16;;;;;;;8.77;4.30;;;13.50;99.90;;;;;;5067721;28;20310;-71
2023/05/26 01:23:20;;;;;;;7.43;4.10;;;13.30;99.90;;;;;;5065367;28;20215;-72
2023/05/26 01:26:05;;;;;;;8.53;4.40;;;13.30;99.90;;;;;;5047094;28;20311;-72
2023/05/26 01:28:34;;;;;;;10.57;4.37;;;13.20;99.90;;;;;;5046876;28;20321;-73
2023/05/26 01:31:01;;;;;;;6.53;3.73;;;13.20;99.90;;;;;;5057854;28;20204;-72
2023/05/26 01:33:28;;;;;;;9.17;4.20;;;13.20;99.90;;;;;;5066515;28;20210;-72
2023/05/26 01:35:55;;;;;;;6.17;3.67;;;13.20;99.90;;;;;;5066675;28;20302;-73
2023/05/26 01:38:22;;;;;;;9.73;4.37;;;13.20;99.90;;;;;;5066515;28;20298;-72
2023/05/26 01:40:57;;;;;;;7.37;3.77;;;13.10;99.90;;;;;;5066377;28;20300;-73
2023/05/26 01:43:29;;;;;;;7.80;4.20;;;13.10;99.90;;;;;;5066376;28;20250;-72
2023/05/26 01:46:02;;;;;;;6.03;4.17;;;13.00;99.90;;;;;;5066557;28;20672;-72
2023/05/26 01:48:31;;;;;;;10.00;4.43;;;13.00;99.90;;;;;;5046821;28;20202;-72
2023/05/26 01:51:02;;;;;;;11.07;4.57;;;12.90;99.90;;;;;;5046146;28;20243;-73
2023/05/26 01:53:32;;;;;;;10.03;4.57;;;12.90;99.90;;;;;;5050928;28;20996;-72
2023/05/26 01:56:01;;;;;;;12.90;4.30;;;12.80;99.90;;;;;;5066827;28;20695;-73
2023/05/26 01:58:28;;;;;;;8.30;4.30;;;12.80;99.90;;;;;;5066440;28;20250;-73
2023/05/26 02:00:59;;;;;;;10.67;4.87;;;12.80;99.90;;;;;;5066608;28;20393;-72
2023/05/26 02:03:27;;;;;;;10.00;4.07;;;12.80;99.90;;;;;;5066299;28;20212;-73
2023/05/26 02:05:53;;;;;;;10.07;4.47;;;12.80;99.90;;;;;;5061994;28;20255;-73
2023/05/26 02:08:21;;;;;;;10.60;4.80;;;12.70;99.90;;;;;;5066311;28;20287;-73
2023/05/26 02:10:48;;;;;;;9.20;4.53;;;12.70;99.90;;;;;;5066418;28;20203;-73
2023/05/26 02:13:15;;;;;;;9.07;4.73;;;12.50;99.90;;;;;;5065759;28;20278;-73
2023/05/26 02:15:42;;;;;;;9.83;4.40;;;12.60;99.90;;;;;;5065968;28;20207;-73
2023/05/26 02:18:11;;;;;;;9.50;4.50;;;12.50;99.90;;;;;;5066389;28;20217;-73
2023/05/26 02:20:38;;;;;;;8.70;4.50;;;12.50;99.90;;;;;;5065883;28;20204;-73
2023/05/26 02:23:05;;;;;;;7.17;4.47;;;12.50;99.90;;;;;;5061463;28;20311;-73
2023/05/26 02:25:32;;;;;;;7.90;4.43;;;12.40;99.90;;;;;;5066183;28;20230;-73
2023/05/26 02:27:59;;;;;;;9.40;4.70;;;12.40;99.90;;;;;;5066488;28;20741;-73
2023/05/26 02:30:26;;;;;;;10.03;4.20;;;12.30;99.90;;;;;;5065674;28;20674;-73
2023/05/26 02:32:53;;;;;;;7.23;4.47;;;12.40;99.90;;;;;;5066183;28;20298;-72
2023/05/26 02:35:21;;;;;;;8.37;4.93;;;12.30;99.90;;;;;;5065631;28;20915;-73
2023/05/26 02:37:48;;;;;;;7.93;4.37;;;12.30;99.90;;;;;;5065763;28;20314;-73
2023/05/26 02:40:15;;;;;;;7.43;4.50;;;12.30;99.90;;;;;;5066247;28;20910;-73
2023/05/26 02:42:42;;;;;;;7.13;4.47;;;12.20;99.90;;;;;;5066003;28;20208;-73
2023/05/26 02:45:12;;;;;;;7.43;4.33;;;12.20;99.90;;;;;;5065629;28;21031;-72
2023/05/26 02:47:39;;;;;;;7.33;4.83;;;12.20;99.90;;;;;;5065842;28;20258;-72
2023/05/26 02:50:07;;;;;;;11.13;5.40;;;12.10;99.90;;;;;;5065732;28;20207;-73
2023/05/26 02:52:36;;;;;;;9.53;5.30;;;12.10;99.90;;;;;;5065275;28;20297;-72
2023/05/26 02:55:02;;;;;;;12.77;4.70;;;12.10;99.90;;;;;;5065889;28;20595;-72
2023/05/26 02:57:29;;;;;;;6.90;4.20;;;12.10;99.90;;;;;;5065139;28;20200;-71
2023/05/26 02:59:56;;;;;;;9.27;4.63;;;12.10;99.90;;;;;;5065458;28;20213;-72
2023/05/26 03:02:26;;;;;;;7.97;4.37;;;12.10;99.90;;;;;;5065285;28;20239;-71
2023/05/26 03:04:53;;;;;;;11.00;5.13;;;12.00;99.90;;;;;;5065500;28;20231;-71
2023/05/26 03:07:20;;;;;;;9.27;4.97;;;12.00;99.90;;;;;;5064151;28;20590;-72
2023/05/26 03:09:48;;;;;;;10.20;4.77;;;12.00;99.90;;;;;;5065443;28;20856;-72
2023/05/26 03:12:15;;;;;;;9.37;5.07;;;12.00;99.90;;;;;;5064916;28;20330;-72
2023/05/26 03:14:42;;;;;;;12.87;5.70;;;12.00;99.90;;;;;;5057973;28;20208;-71
2023/05/26 03:17:10;;;;;;;11.50;5.17;;;11.90;99.90;;;;;;5059383;28;20577;-72
2023/05/26 03:19:37;;;;;;;8.57;4.57;;;11.90;99.90;;;;;;5065642;28;20263;-71
2023/05/26 03:22:04;;;;;;;12.03;4.93;;;11.90;99.90;;;;;;5065472;28;20211;-71
2023/05/26 03:24:31;;;;;;;9.13;4.90;;;11.90;99.90;;;;;;5065168;28;20231;-72
2023/05/26 03:26:59;;;;;;;9.33;4.73;;;11.90;99.90;;;;;;5064948;28;20231;-71
2023/05/26 03:29:27;;;;;;;8.37;4.70;;;11.90;99.90;;;;;;5065021;28;20302;-73
2023/05/26 03:31:54;;;;;;;11.67;5.27;;;11.90;99.90;;;;;;5064204;28;20253;-72
2023/05/26 03:34:23;;;;;;;11.03;4.93;;;11.80;99.90;;;;;;5064193;28;20257;-71
2023/05/26 03:36:52;;;;;;;10.83;4.90;;;11.90;99.90;;;;;;5064676;28;20751;-76
2023/05/26 03:39:21;;;;;;;10.73;4.93;;;11.90;99.90;;;;;;5065006;28;20200;-72
2023/05/26 03:41:48;;;;;;;11.73;5.00;;;11.80;99.90;;;;;;5065471;28;20196;-72
2023/05/26 03:44:18;;;;;;;8.07;4.43;;;11.80;99.90;;;;;;5065000;28;20255;-72
2023/05/26 03:46:46;;;;;;;9.60;4.67;;;11.80;99.90;;;;;;5065088;28;20222;-74
2023/05/26 03:49:13;;;;;;;8.57;4.87;;;11.80;99.90;;;;;;5045413;28;20211;-73
2023/05/26 03:51:40;;;;;;;12.27;5.07;;;11.80;99.90;;;;;;5064759;28;20595;-69
2023/05/26 03:54:07;;;;;;;12.07;5.07;;;11.70;99.90;;;;;;5065747;28;20203;-75
2023/05/26 03:56:34;;;;;;;8.80;5.40;;;11.70;99.90;;;;;;5065134;28;20290;-75
2023/05/26 03:59:02;;;;;;;12.20;5.10;;;11.80;99.90;;;;;;5064855;28;20857;-78
2023/05/26 04:01:30;;;;;;;8.20;4.70;;;11.80;99.90;;;;;;5064981;28;20273;-76
2023/05/26 04:03:57;;;;;;;11.57;4.87;;;11.80;99.90;;;;;;5065070;28;21065;-71
2023/05/26 04:06:24;;;;;;;12.47;4.90;;;11.80;99.90;;;;;;5064724;28;20330;-71
2023/05/26 04:08:51;;;;;;;10.67;5.23;;;11.80;99.90;;;;;;5064798;28;20235;-71
2023/05/26 04:11:18;;;;;;;10.10;4.30;;;11.80;99.90;;;;;;5064983;28;20217;-68
2023/05/26 04:13:45;;;;;;;9.20;4.43;;;11.80;99.90;;;;;;5064359;28;20231;-68
2023/05/26 04:16:12;;;;;;;9.07;4.83;;;11.70;99.90;;;;;;5067456;28;20204;-69
2023/05/26 04:18:43;;;;;;;13.30;5.37;;;11.70;99.90;;;;;;5067964;28;20231;-68
2023/05/26 04:21:10;;;;;;;11.07;5.27;;;11.80;99.90;;;;;;5054761;28;20269;-68
2023/05/26 04:23:37;;;;;;;10.30;4.33;;;11.80;99.90;;;;;;5065068;28;20234;-69
2023/05/26 04:26:04;;;;;;;8.57;4.53;;;11.80;99.90;;;;;;5070736;28;20227;-69
2023/05/26 04:28:31;;;;;;;11.37;4.97;;;11.80;99.90;;;;;;5067839;28;20218;-70
2023/05/26 04:30:57;;;;;;;11.70;5.60;;;11.80;99.90;;;;;;5068136;28;20239;-69
2023/05/26 04:33:25;;;;;;;11.23;5.13;;;11.90;99.90;;;;;;5068717;28;20295;-69
2023/05/26 04:35:54;;;;;;;16.83;5.37;;;11.90;99.90;;;;;;5069874;28;20674;-70
2023/05/26 04:38:21;;;;;;;11.23;4.80;;;11.90;99.90;;;;;;5067878;28;20208;-68
2023/05/26 04:40:49;;;;;;;17.63;5.80;;;11.90;99.90;;;;;;5068490;28;20207;-68
2023/05/26 04:43:16;;;;;;;15.47;5.20;;;11.90;99.90;;;;;;5068119;28;20203;-68
2023/05/26 04:45:43;;;;;;;16.10;5.40;;;11.90;99.90;;;;;;5067415;28;20294;-68
2023/05/26 04:48:10;;;;;;;16.37;6.03;;;12.00;99.90;;;;;;5067635;28;20207;-68
2023/05/26 04:50:38;;;;;;;14.13;5.33;;;12.00;99.90;;;;;;5068060;28;20230;-68
2023/05/26 04:53:06;;;;;;;12.73;5.60;;;12.00;99.90;;;;;;5067703;28;20223;-69
2023/05/26 04:55:35;;;;;;;12.30;5.60;;;11.90;99.90;;;;;;5067545;28;20306;-68
2023/05/26 04:58:03;;;;;;;17.03;5.40;;;11.90;99.90;;;;;;5066961;28;20685;-68
2023/05/26 05:00:31;;;;;;;18.53;5.90;;;12.00;99.90;;;;;;5056867;28;20215;-68
2023/05/26 05:02:58;;;;;;;15.30;5.30;;;12.00;99.90;;;;;;5053500;28;20421;-68
2023/05/26 05:05:25;;;;;;;12.13;5.20;;;12.00;99.90;;;;;;5057185;28;20713;-68
2023/05/26 05:07:52;;;;;;;12.10;4.80;;;12.10;99.90;;;;;;5059455;28;20204;-68
2023/05/26 05:10:20;;;;;;;14.00;5.20;;;12.10;99.90;;;;;;5058634;28;20195;-68
2023/05/26 05:12:47;;;;;;;15.47;5.93;;;12.20;99.90;;;;;;5052891;28;20251;-68
2023/05/26 05:15:14;;;;;;;17.33;5.80;;;12.30;99.90;;;;;;5057713;28;20828;-68
2023/05/26 05:17:41;;;;;;;16.93;5.53;;;12.30;99.90;;;;;;5059307;28;20208;-67
2023/05/26 05:20:09;;;;;;;15.20;5.77;;;12.30;99.90;;;;;;5057664;28;20200;-68
2023/05/26 05:22:36;;;;;;;13.63;4.87;;;12.30;99.90;;;;;;5066517;28;20290;-67
2023/05/26 05:25:03;;;;;;;14.03;5.40;;;12.40;99.90;;;;;;5053181;28;20243;-67
2023/05/26 05:27:31;;;;;;;13.50;4.80;;;12.50;99.90;;;;;;5065536;28;20576;-67
2023/05/26 05:29:58;;;;;;;22.13;5.57;;;12.60;99.90;;;;;;5063718;28;20311;-67
2023/05/26 05:32:25;;;;;;;14.40;5.00;;;12.70;99.90;;;;;;5053151;28;20280;-67
2023/05/26 05:34:52;;;;;;;13.73;4.47;;;12.80;99.90;;;;;;5055724;28;20292;-67
2023/05/26 05:37:19;;;;;;;16.57;5.77;;;12.90;99.90;;;;;;5055011;28;20231;-66
2023/05/26 05:39:46;;;;;;;15.17;4.67;;;12.90;99.90;;;;;;5057554;28;20203;-67
2023/05/26 05:42:12;;;;;;;17.43;5.23;;;12.90;99.90;;;;;;5065722;28;20215;-67
2023/05/26 05:44:41;;;;;;;16.07;4.90;;;13.00;99.90;;;;;;5067125;28;20629;-68
2023/05/26 05:47:08;;;;;;;16.80;5.43;;;13.00;99.90;;;;;;5058056;28;20292;-68
2023/05/26 05:49:34;;;;;;;12.07;5.00;;;13.00;99.90;;;;;;5051590;28;20222;-68
2023/05/26 05:52:01;;;;;;;13.83;5.00;;;13.00;99.90;;;;;;5055511;28;20292;-68
2023/05/26 05:54:28;;;;;;;21.00;5.60;;;13.10;99.90;;;;;;5067080;28;20298;-68
2023/05/26 05:56:55;;;;;;;12.43;4.57;;;13.10;99.90;;;;;;5067318;28;20290;-68
2023/05/26 05:59:22;;;;;;;13.63;5.00;;;13.20;99.90;;;;;;5066703;28;20294;-68
2023/05/26 06:01:50;;;;;;;18.07;5.60;;;13.20;99.90;;;;;;5065168;28;20649;-68
2023/05/26 06:04:17;;;;;;;11.30;4.70;;;13.20;99.90;;;;;;5062476;28;20231;-68
2023/05/26 06:06:44;;;;;;;14.07;4.57;;;13.20;99.90;;;;;;5063992;28;20310;-68
2023/05/26 06:09:11;;;;;;;13.43;4.00;;;13.30;99.90;;;;;;5063293;28;20303;-68
2023/05/26 06:11:38;;;;;;;14.63;4.57;;;13.40;99.90;;;;;;5061890;28;20318;-69
2023/05/26 06:14:05;;;;;;;13.70;4.83;;;13.30;99.90;;;;;;5062673;28;20258;-68
2023/05/26 06:16:32;;;;;;;14.77;4.70;;;13.40;99.90;;;;;;5063535;28;20195;-67
2023/05/26 06:19:00;;;;;;;19.43;6.80;;;13.40;99.90;;;;;;5059047;28;20284;-67
2023/05/26 06:21:28;;;;;;;18.83;12.50;;;13.50;99.90;;;;;;5065792;28;20231;-67
2023/05/26 06:23:55;;;;;;;17.97;5.37;;;13.60;99.90;;;;;;5062523;28;20234;-71
2023/05/26 06:26:22;;;;;;;17.40;5.40;;;13.60;99.90;;;;;;5060258;28;20318;-71
2023/05/26 06:28:48;;;;;;;13.37;5.87;;;13.60;99.90;;;;;;5062159;28;20204;-70
2023/05/26 06:31:16;;;;;;;13.43;4.93;;;13.70;99.90;;;;;;5060188;28;20741;-71
2023/05/26 06:33:43;;;;;;;17.87;4.60;;;13.70;99.90;;;;;;5063484;28;20206;-71
2023/05/26 06:36:12;;;;;;;13.67;5.10;;;13.70;99.90;;;;;;5053035;28;20607;-71
2023/05/26 06:38:38;;;;;;;18.77;4.33;;;13.80;99.90;;;;;;5064749;28;20686;-71
2023/05/26 06:41:06;;;;;;;16.80;5.33;;;13.80;99.90;;;;;;5061673;28;20295;-71
2023/05/26 06:43:33;;;;;;;16.53;4.60;;;13.90;99.90;;;;;;5065514;28;20515;-71
2023/05/26 06:46:00;;;;;;;14.80;5.00;;;13.90;99.90;;;;;;5065038;28;20321;-73
2023/05/26 06:48:27;;;;;;;13.03;4.77;;;14.00;99.90;;;;;;5065376;28;20629;-70
2023/05/26 06:50:54;;;;;;;18.63;5.07;;;14.00;99.90;;;;;;5065309;28;20769;-70
2023/05/26 06:53:22;;;;;;;15.17;5.00;;;14.10;99.90;;;;;;5065769;28;20207;-69
2023/05/26 06:55:49;;;;;;;15.60;4.53;;;14.10;99.90;;;;;;5065896;28;20922;-70
2023/05/26 06:58:16;;;;;;;16.57;5.07;;;14.10;99.90;;;;;;5065623;28;20208;-70
2023/05/26 07:00:57;;;;;;;17.93;4.97;;;14.10;99.90;;;;;;5065060;28;20314;-70
2023/05/26 07:03:24;;;;;;;19.20;5.23;;;14.10;99.90;;;;;;5055515;28;20191;-70
2023/05/26 07:05:51;;;;;;;17.13;5.10;;;14.10;99.90;;;;;;5065898;28;20273;-70
2023/05/26 07:08:18;;;;;;;17.60;5.13;;;14.10;99.90;;;;;;5066140;28;20235;-70
2023/05/26 07:10:46;;;;;;;14.27;4.77;;;14.20;99.90;;;;;;5065491;28;20647;-70
2023/05/26 07:13:14;;;;;;;20.27;5.40;;;14.20;99.90;;;;;;5065152;28;20367;-70
2023/05/26 07:15:41;;;;;;;18.13;5.83;;;14.30;99.90;;;;;;5065221;28;20620;-70
2023/05/26 07:18:08;;;;;;;18.63;5.00;;;14.30;99.90;;;;;;5065651;28;20300;-70
2023/05/26 07:20:35;;;;;;;19.63;5.27;;;14.20;99.90;;;;;;5065620;28;20290;-69
2023/05/26 07:23:02;;;;;;;22.30;5.03;;;14.30;99.90;;;;;;5065639;28;20199;-70
2023/05/26 07:25:29;;;;;;;11.50;4.57;;;14.40;99.90;;;;;;5065500;28;20346;-69
2023/05/26 07:27:57;;;;;;;14.07;4.73;;;14.50;99.90;;;;;;5065532;28;20294;-70
2023/05/26 07:30:24;;;;;;;17.83;4.30;;;14.50;99.90;;;;;;5065287;28;20747;-70
2023/05/26 07:32:51;;;;;;;12.67;4.73;;;14.60;99.90;;;;;;5065813;28;20203;-70
2023/05/26 07:35:18;;;;;;;14.23;5.10;;;14.60;99.90;;;;;;5065482;28;20741;-69
2023/05/26 07:37:45;;;;;;;13.87;5.00;;;14.70;99.90;;;;;;5065833;28;20310;-70
2023/05/26 07:40:13;;;;;;;16.10;4.67;;;14.70;99.90;;;;;;5065727;28;20287;-70
2023/05/26 07:42:40;;;;;;;19.07;5.23;;;14.80;99.90;;;;;;5065695;28;20211;-70
2023/05/26 07:45:09;;;;;;;13.77;4.70;;;14.90;99.90;;;;;;5065237;28;20227;-70
2023/05/26 07:47:36;;;;;;;10.53;4.57;;;14.80;99.90;;;;;;5065450;28;20251;-70
2023/05/26 07:50:04;;;;;;;17.03;5.23;;;14.90;99.90;;;;;;5066790;28;20306;-70
2023/05/26 07:52:31;;;;;;;17.33;4.67;;;14.90;99.90;;;;;;5069047;28;20207;-70
2023/05/26 07:54:59;;;;;;;15.23;5.00;;;15.00;99.90;;;;;;5068755;28;20302;-70
2023/05/26 07:57:25;;;;;;;13.97;4.20;;;15.00;99.90;;;;;;5068198;28;20219;-68
2023/05/26 07:59:52;;;;;;;16.23;4.77;;;15.10;99.90;;;;;;5068284;28;20711;-67
2023/05/26 08:02:21;;;;;;;20.10;5.23;;;15.20;99.90;;;;;;5068170;28;20206;-67
2023/05/26 08:04:48;;;;;;;18.03;4.57;;;15.20;99.90;;;;;;5068044;28;20341;-67
2023/05/26 08:07:14;;;;;;;14.00;4.60;;;15.30;99.90;;;;;;5067943;28;20683;-68
2023/05/26 08:09:41;;;;;;;15.90;5.30;;;15.40;99.90;;;;;;5064572;28;20302;-68
2023/05/26 08:12:08;;;;;;;11.67;4.83;;;15.40;99.90;;;;;;5064677;28;20322;-68
2023/05/26 08:14:36;;;;;;;15.17;4.53;;;15.40;99.90;;;;;;5061725;28;20676;-68
2023/05/26 08:17:03;;;;;;;15.10;4.80;;;15.50;99.90;;;;;;5062353;28;20294;-69
2023/05/26 08:19:31;;;;;;;14.50;4.63;;;15.50;99.90;;;;;;5068625;28;20306;-68
2023/05/26 08:21:58;;;;;;;14.07;5.00;;;15.60;99.90;;;;;;5069041;28;20286;-68
2023/05/26 08:24:25;;;;;;;20.60;5.00;;;15.70;99.90;;;;;;5059295;28;20302;-67
2023/05/26 08:26:52;;;;;;;24.03;5.77;;;15.70;99.90;;;;;;5068925;28;20208;-68
2023/05/26 08:29:20;;;;;;;16.67;4.80;;;15.70;99.90;;;;;;5068780;28;20235;-68
2023/05/26 08:31:46;;;;;;;16.40;4.80;;;15.80;99.90;;;;;;5068160;28;20237;-69
2023/05/26 08:34:13;;;;;;;13.13;4.43;;;15.80;99.90;;;;;;5067993;28;20298;-68
2023/05/26 08:36:41;;;;;;;17.73;4.43;;;15.90;99.90;;;;;;5067070;28;20943;-68
2023/05/26 08:39:08;;;;;;;12.20;4.70;;;15.90;99.90;;;;;;5062978;28;20298;-68
2023/05/26 08:41:40;;;;;;;14.83;5.03;;;15.90;99.90;;;;;;5067858;28;20640;-71
2023/05/26 08:44:09;;;;;;;15.03;4.90;;;16.00;99.90;;;;;;5065380;28;20614;-72
2023/05/26 08:46:37;;;;;;;14.03;4.47;;;16.00;99.90;;;;;;5059099;28;20597;-71
2023/05/26 08:49:05;;;;;;;16.13;5.60;;;16.10;99.90;;;;;;5065029;28;20215;-72
2023/05/26 08:51:36;;;;;;;11.93;4.10;;;16.10;99.90;;;;;;5067641;28;20287;-72
2023/05/26 08:54:05;;;;;;;11.97;4.30;;;16.20;99.90;;;;;;5067939;28;20570;-72
2023/05/26 08:56:33;;;;;;;13.47;4.57;;;16.30;99.90;;;;;;5068060;28;20284;-71
2023/05/26 08:59:02;;;;;;;16.73;4.47;;;16.30;99.90;;;;;;5068100;28;20261;-71
2023/05/26 09:01:28;;;;;;;12.27;4.17;;;16.40;99.90;;;;;;5067256;28;20223;-71
2023/05/26 09:03:55;;;;;;;13.17;4.27;;;16.50;99.90;;;;;;5067995;28;20206;-72
2023/05/26 09:06:22;;;;;;;14.63;4.20;;;16.50;99.90;;;;;;5066872;28;20318;-72
2023/05/26 09:08:49;;;;;;;13.67;4.40;;;16.50;99.90;;;;;;5064066;28;20204;-72
2023/05/26 09:11:22;;;;;;;13.80;4.27;;;16.60;99.90;;;;;;5067086;28;20616;-71
2023/05/26 09:13:52;;;;;;;75.77;7.87;;;16.70;99.90;;;;;;5066568;28;20322;-71
2023/05/26 09:16:22;;;;;;;13.33;4.70;;;16.80;99.90;;;;;;5066744;28;20310;-71
2023/05/26 09:18:50;;;;;;;14.70;4.40;;;16.80;99.90;;;;;;5067287;28;20217;-71
2023/05/26 09:21:17;;;;;;;13.03;4.33;;;16.80;99.90;;;;;;5066990;28;20200;-71
2023/05/26 09:23:46;;;;;;;12.57;4.40;;;16.90;99.90;;;;;;5066415;28;20720;-72
2023/05/26 09:26:17;;;;;;;12.63;4.30;;;16.80;99.90;;;;;;5061852;28;20292;-70
2023/05/26 09:28:49;;;;;;;11.77;4.63;;;16.90;99.90;;;;;;5065696;28;20200;-70
2023/05/26 09:31:16;;;;;;;14.33;3.87;;;17.00;99.90;;;;;;5063283;28;20199;-71
2023/05/26 09:33:46;;;;;;;12.00;4.20;;;17.00;99.90;;;;;;5066527;28;20207;-71
2023/05/26 09:36:14;;;;;;;12.00;4.17;;;17.00;99.90;;;;;;5064032;28;20379;-71
2023/05/26 09:38:43;;;;;;;14.07;4.63;;;17.00;99.90;;;;;;5065858;28;20257;-71
2023/05/26 09:41:10;;;;;;;12.00;3.80;;;17.00;99.90;;;;;;5066576;28;20542;-71
2023/05/26 09:43:37;;;;;;;11.77;4.27;;;17.10;99.90;;;;;;5055249;28;20645;-70
2023/05/26 09:46:20;;;;;;;11.63;3.60;;;17.20;99.90;;;;;;5066519;28;20234;-71
2023/05/26 09:48:50;;;;;;;9.10;3.43;;;17.30;99.90;;;;;;5058113;28;20235;-71
2023/05/26 09:51:20;;;;;;;13.67;3.73;;;17.40;99.90;;;;;;5066291;28;20207;-70
2023/05/26 09:53:47;;;;;;;13.53;4.67;;;17.50;99.90;;;;;;5063901;28;20210;-70
2023/05/26 09:56:15;;;;;;;15.10;4.07;;;17.50;99.90;;;;;;5060818;28;20294;-72
2023/05/26 09:58:46;;;;;;;13.47;4.53;;;17.40;99.90;;;;;;5065852;28;20244;-70
2023/05/26 10:01:17;;;;;;;10.50;3.80;;;17.40;99.90;;;;;;5066097;28;20294;-70
2023/05/26 10:03:45;;;;;;;14.77;3.83;;;17.60;99.90;;;;;;5063139;28;20273;-70
2023/05/26 10:06:13;;;;;;;10.77;3.63;;;17.70;99.90;;;;;;5050759;28;20230;-70
2023/05/26 10:08:41;;;;;;;9.97;4.23;;;17.70;99.90;;;;;;5066298;28;20360;-70
2023/05/26 10:11:09;;;;;;;11.37;3.97;;;17.70;99.10;;;;;;5066478;28;20207;-71
2023/05/26 10:13:36;;;;;;;9.53;4.03;;;17.80;99.90;;;;;;5064132;28;20245;-71
2023/05/26 10:16:05;;;;;;;9.97;3.53;;;17.80;99.60;;;;;;5065799;28;20309;-71
2023/05/26 10:18:33;;;;;;;9.33;3.97;;;17.80;98.60;;;;;;5053802;28;20199;-70
2023/05/26 10:21:06;;;;;;;13.03;3.80;;;17.80;99.30;;;;;;5065822;28;20298;-71
2023/05/26 10:23:37;;;;;;;13.07;3.97;;;18.00;99.80;;;;;;5063604;28;20879;-71
2023/05/26 10:26:08;;;;;;;8.97;3.40;;;18.10;99.50;;;;;;5052742;28;20227;-71
2023/05/26 10:28:41;;;;;;;31.63;4.87;;;18.20;99.10;;;;;;5065224;28;20294;-70
2023/05/26 10:31:08;;;;;;;12.03;4.57;;;18.30;99.70;;;;;;5065285;28;20318;-71
2023/05/26 10:33:41;;;;;;;13.80;4.40;;;18.30;99.00;;;;;;5065411;28;20295;-71
2023/05/26 10:36:10;;;;;;;18.90;4.77;;;18.40;99.30;;;;;;5062803;28;20238;-71
2023/05/26 10:38:39;;;;;;;15.87;4.43;;;18.60;99.00;;;;;;5057378;28;20233;-71
2023/05/26 10:41:11;;;;;;;13.67;4.13;;;18.60;98.20;;;;;;5062373;28;20298;-71
2023/05/26 10:43:39;;;;;;;9.93;4.03;;;18.60;98.00;;;;;;5063976;28;20204;-71
2023/05/26 10:46:06;;;;;;;9.00;4.23;;;18.70;98.30;;;;;;5062585;28;20701;-70
2023/05/26 10:48:40;;;;;;;9.03;3.67;;;18.80;97.40;;;;;;5065311;28;20207;-71
2023/05/26 10:51:15;;;;;;;11.00;3.67;;;18.80;96.30;;;;;;5065408;28;20297;-72
2023/05/26 10:53:44;;;;;;;9.30;3.80;;;18.90;96.80;;;;;;5063816;28;20203;-68
2023/05/26 10:56:13;;;;;;;12.07;3.93;;;18.90;96.00;;;;;;5065774;28;20219;-68
2023/05/26 10:58:42;;;;;;;13.50;8.13;;;19.00;96.10;;;;;;5064945;28;20215;-67
2023/05/26 11:01:13;;;;;;;14.03;4.23;;;19.10;96.40;;;;;;5062632;28;20997;-69
2023/05/26 11:03:43;;;;;;;8.33;3.77;;;19.20;96.10;;;;;;5064957;28;20572;-72
2023/05/26 11:06:11;;;;;;;7.97;3.40;;;19.20;96.40;;;;;;5064639;28;20235;-72
2023/05/26 11:08:39;;;;;;;10.57;4.00;;;19.40;96.80;;;;;;5064584;28;20263;-74
2023/05/26 11:11:08;;;;;;;11.63;4.23;;;19.50;95.00;;;;;;5064433;28;20299;-73
2023/05/26 11:13:44;;;;;;;9.47;3.80;;;19.50;94.50;;;;;;5063444;28;20594;-76
2023/05/26 11:16:13;;;;;;;8.13;3.57;;;19.50;94.40;;;;;;5053306;28;20199;-71
2023/05/26 11:18:47;;;;;;;11.03;3.77;;;19.60;93.90;;;;;;5055803;28;20207;-73
2023/05/26 11:21:15;;;;;;;9.77;3.33;;;19.70;93.10;;;;;;5065617;28;20199;-73
2023/05/26 11:23:42;;;;;;;10.13;3.07;;;19.60;93.00;;;;;;5064018;28;20227;-73
2023/05/26 11:26:14;;;;;;;22.33;5.30;;;19.70;93.30;;;;;;5067923;28;20231;-72
2023/05/26 11:28:42;;;;;;;9.63;3.63;;;19.80;92.60;;;;;;5068571;28;20298;-72
2023/05/26 11:31:13;;;;;;;14.77;4.33;;;19.80;91.90;;;;;;5068495;28;20723;-72
2023/05/26 11:33:44;;;;;;;8.50;3.40;;;19.90;93.00;;;;;;5069530;28;20310;-72
2023/05/26 11:36:12;;;;;;;10.20;3.53;;;20.10;92.60;;;;;;5069526;28;20270;-73
2023/05/26 11:38:40;;;;;;;7.33;3.13;;;20.20;91.70;;;;;;5069127;28;20207;-73
2023/05/26 11:41:08;;;;;;;9.47;3.57;;;20.30;92.40;;;;;;5069567;28;20307;-73
2023/05/26 11:43:36;;;;;;;8.23;3.30;;;20.50;93.00;;;;;;5069524;28;20294;-73
2023/05/26 11:46:08;;;;;;;7.73;3.47;;;20.40;91.80;;;;;;5069197;28;20333;-73
2023/05/26 11:48:36;;;;;;;8.73;3.60;;;20.60;91.80;;;;;;5067019;28;20290;-73
2023/05/26 11:51:12;;;;;;;10.85;3.78;;;20.70;91.20;;;;;;5069018;28;20203;-73
2023/05/26 11:53:40;;;;;;;10.10;3.60;;;20.90;91.30;;;;;;5068693;28;20298;-73
2023/05/26 11:56:08;;;;;;;7.17;3.20;;;20.90;91.00;;;;;;5069069;28;20689;-73
2023/05/26 11:58:38;;;;;;;7.67;3.17;;;21.10;90.90;;;;;;5069021;28;20295;-73
2023/05/26 12:01:06;;;;;;;9.77;3.70;;;21.10;90.40;;;;;;5069231;28;20239;-73
2023/05/26 12:03:36;;;;;;;9.23;3.40;;;20.90;90.50;;;;;;5068939;28;20713;-73
2023/05/26 12:06:15;;;;;;;9.35;3.33;;;21.10;91.20;;;;;;5069083;28;20227;-73
2023/05/26 12:08:47;;;;;;;9.57;3.75;;;21.30;90.90;;;;;;5068985;28;20202;-73
2023/05/26 12:11:16;;;;;;;8.77;3.95;;;21.40;91.00;;;;;;5069114;28;20203;-73
2023/05/26 12:13:44;;;;;;;10.10;3.60;;;21.60;90.40;;;;;;5068711;28;20653;-73
2023/05/26 12:16:22;;;;;;;7.47;3.42;;;21.80;90.70;;;;;;5067923;28;20670;-73
2023/05/26 12:18:52;;;;;;;7.65;3.08;;;22.00;91.30;;;;;;5048968;28;20215;-73
2023/05/26 12:21:20;;;;;;;6.88;3.63;;;22.10;90.70;;;;;;5052928;28;20287;-73
2023/05/26 12:23:48;;;;;;;11.45;3.25;;;22.30;90.00;;;;;;5068562;28;20610;-73
2023/05/26 12:26:15;;;;;;;9.52;3.47;;;22.40;89.50;;;;;;5068470;28;20335;-73
2023/05/26 12:28:43;;;;;;;8.57;4.18;;;22.50;88.00;;;;;;5068618;28;20230;-73
2023/05/26 12:31:10;;;;;;;10.65;3.70;;;22.60;87.90;;;;;;5068024;28;20239;-73
2023/05/26 12:33:37;;;;;;;9.63;3.17;;;22.50;86.90;;;;;;5067909;28;20303;-73
2023/05/26 12:36:04;;;;;;;14.23;3.83;;;22.60;88.00;;;;;;5067860;28;21110;-73
2023/05/26 12:38:41;;;;;;;7.60;3.45;;;22.70;87.40;;;;;;5068040;28;20301;-73
2023/05/26 12:41:08;;;;;;;8.23;4.05;;;22.80;86.80;;;;;;5067993;28;20283;-73
2023/05/26 12:43:36;;;;;;;9.75;3.90;;;22.80;86.60;;;;;;5068027;28;21044;-73
2023/05/26 12:46:03;;;;;;;8.07;3.60;;;22.90;85.70;;;;;;5067676;28;20295;-73